sensor_id;sensor_type;location;lat;lon;timestamp;temperature;humidity
38480;DHT22;62333;51.980;5.934;2023-04-03T00:00:23;7.50;67.70
38480;DHT22;62333;51.980;5.934;2023-04-03T00:02:49;7.50;67.80
38480;DHT22;62333;51.980;5.934;2023-04-03T00:05:15;7.50;67.90
38480;DHT22;62333;51.980;5.934;2023-04-03T00:07:40;7.50;68.00
38480;DHT22;62333;51.980;5.934;2023-04-03T00:10:07;7.50;68.00
38480;DHT22;62333;51.980;5.934;2023-04-03T00:12:33;7.40;68.10
38480;DHT22;62333;51.980;5.934;2023-04-03T00:14:58;7.40;68.20
38480;DHT22;62333;51.980;5.934;2023-04-03T00:17:24;7.40;68.20
38480;DHT22;62333;51.980;5.934;2023-04-03T00:19:50;7.30;68.30
38480;DHT22;62333;51.980;5.934;2023-04-03T00:22:16;7.30;68.40
38480;DHT22;62333;51.980;5.934;2023-04-03T00:24:41;7.30;68.60
38480;DHT22;62333;51.980;5.934;2023-04-03T00:27:07;7.30;68.70
38480;DHT22;62333;51.980;5.934;2023-04-03T00:29:33;7.30;68.90
38480;DHT22;62333;51.980;5.934;2023-04-03T00:31:58;7.20;68.90
38480;DHT22;62333;51.980;5.934;2023-04-03T00:34:24;7.20;69.00
38480;DHT22;62333;51.980;5.934;2023-04-03T00:36:50;7.20;69.70
38480;DHT22;62333;51.980;5.934;2023-04-03T00:39:16;7.20;69.10
38480;DHT22;62333;51.980;5.934;2023-04-03T00:41:42;7.20;69.20
38480;DHT22;62333;51.980;5.934;2023-04-03T00:47:07;7.20;69.50
38480;DHT22;62333;51.980;5.934;2023-04-03T00:49:34;7.10;69.50
38480;DHT22;62333;51.980;5.934;2023-04-03T00:52:00;7.10;69.60
38480;DHT22;62333;51.980;5.934;2023-04-03T00:54:27;7.10;69.80
38480;DHT22;62333;51.980;5.934;2023-04-03T00:56:54;7.10;69.90
38480;DHT22;62333;51.980;5.934;2023-04-03T00:59:26;7.00;70.00
38480;DHT22;62333;51.980;5.934;2023-04-03T01:01:54;7.00;70.20
38480;DHT22;62333;51.980;5.934;2023-04-03T01:04:29;7.00;70.40
38480;DHT22;62333;51.980;5.934;2023-04-03T01:06:59;7.00;70.60
38480;DHT22;62333;51.980;5.934;2023-04-03T01:09:26;6.90;70.60
38480;DHT22;62333;51.980;5.934;2023-04-03T01:11:53;6.90;70.80
38480;DHT22;62333;51.980;5.934;2023-04-03T01:14:18;6.90;71.00
38480;DHT22;62333;51.980;5.934;2023-04-03T01:16:55;6.90;71.00
38480;DHT22;62333;51.980;5.934;2023-04-03T01:19:22;6.80;71.20
38480;DHT22;62333;51.980;5.934;2023-04-03T01:24:36;6.80;71.40
38480;DHT22;62333;51.980;5.934;2023-04-03T01:27:05;6.80;71.60
38480;DHT22;62333;51.980;5.934;2023-04-03T01:29:32;6.80;71.70
38480;DHT22;62333;51.980;5.934;2023-04-03T01:31:59;6.80;72.60
38480;DHT22;62333;51.980;5.934;2023-04-03T01:34:26;6.70;72.10
38480;DHT22;62333;51.980;5.934;2023-04-03T01:36:52;6.70;72.10
38480;DHT22;62333;51.980;5.934;2023-04-03T01:39:18;6.70;72.30
38480;DHT22;62333;51.980;5.934;2023-04-03T01:41:44;6.70;72.50
38480;DHT22;62333;51.980;5.934;2023-04-03T01:44:10;6.70;72.60
38480;DHT22;62333;51.980;5.934;2023-04-03T01:46:36;6.60;72.60
38480;DHT22;62333;51.980;5.934;2023-04-03T01:49:03;6.60;72.70
38480;DHT22;62333;51.980;5.934;2023-04-03T01:51:29;6.60;72.80
38480;DHT22;62333;51.980;5.934;2023-04-03T01:53:55;6.60;72.80
38480;DHT22;62333;51.980;5.934;2023-04-03T01:56:21;6.60;72.90
38480;DHT22;62333;51.980;5.934;2023-04-03T01:58:46;6.60;73.10
38480;DHT22;62333;51.980;5.934;2023-04-03T02:01:12;6.60;73.20
38480;DHT22;62333;51.980;5.934;2023-04-03T02:03:38;6.60;73.90
38480;DHT22;62333;51.980;5.934;2023-04-03T02:06:04;6.50;73.40
38480;DHT22;62333;51.980;5.934;2023-04-03T02:08:29;6.50;73.60
38480;DHT22;62333;51.980;5.934;2023-04-03T02:10:55;6.50;73.90
38480;DHT22;62333;51.980;5.934;2023-04-03T02:13:21;6.40;73.90
38480;DHT22;62333;51.980;5.934;2023-04-03T02:15:47;6.50;74.20
38480;DHT22;62333;51.980;5.934;2023-04-03T02:18:15;6.50;74.30
38480;DHT22;62333;51.980;5.934;2023-04-03T02:20:40;6.40;74.50
38480;DHT22;62333;51.980;5.934;2023-04-03T02:23:06;6.40;74.70
38480;DHT22;62333;51.980;5.934;2023-04-03T02:25:32;6.40;74.70
38480;DHT22;62333;51.980;5.934;2023-04-03T02:27:58;6.30;74.80
38480;DHT22;62333;51.980;5.934;2023-04-03T02:30:24;6.30;75.10
38480;DHT22;62333;51.980;5.934;2023-04-03T02:32:50;6.30;75.20
38480;DHT22;62333;51.980;5.934;2023-04-03T02:35:16;6.30;75.50
38480;DHT22;62333;51.980;5.934;2023-04-03T02:37:41;6.30;75.70
38480;DHT22;62333;51.980;5.934;2023-04-03T02:40:08;6.30;75.80
38480;DHT22;62333;51.980;5.934;2023-04-03T02:42:34;6.20;75.80
38480;DHT22;62333;51.980;5.934;2023-04-03T02:44:59;6.20;75.80
38480;DHT22;62333;51.980;5.934;2023-04-03T02:47:28;6.20;75.90
38480;DHT22;62333;51.980;5.934;2023-04-03T02:49:53;6.20;76.10
38480;DHT22;62333;51.980;5.934;2023-04-03T02:52:20;6.20;76.20
38480;DHT22;62333;51.980;5.934;2023-04-03T02:54:45;6.10;76.30
38480;DHT22;62333;51.980;5.934;2023-04-03T02:57:12;6.10;76.60
38480;DHT22;62333;51.980;5.934;2023-04-03T02:59:38;6.10;76.70
38480;DHT22;62333;51.980;5.934;2023-04-03T03:02:08;6.10;76.80
38480;DHT22;62333;51.980;5.934;2023-04-03T03:04:34;6.10;77.10
38480;DHT22;62333;51.980;5.934;2023-04-03T03:07:00;6.00;77.10
38480;DHT22;62333;51.980;5.934;2023-04-03T03:09:25;6.00;77.20
38480;DHT22;62333;51.980;5.934;2023-04-03T03:11:52;6.00;77.30
38480;DHT22;62333;51.980;5.934;2023-04-03T03:14:17;6.00;77.40
38480;DHT22;62333;51.980;5.934;2023-04-03T03:16:43;6.00;77.40
38480;DHT22;62333;51.980;5.934;2023-04-03T03:19:09;6.00;77.60
38480;DHT22;62333;51.980;5.934;2023-04-03T03:21:35;6.00;77.80
38480;DHT22;62333;51.980;5.934;2023-04-03T03:24:01;5.90;77.90
38480;DHT22;62333;51.980;5.934;2023-04-03T03:26:26;5.90;78.00
38480;DHT22;62333;51.980;5.934;2023-04-03T03:28:52;6.00;78.00
38480;DHT22;62333;51.980;5.934;2023-04-03T03:31:18;6.00;78.20
38480;DHT22;62333;51.980;5.934;2023-04-03T03:33:44;5.90;78.20
38480;DHT22;62333;51.980;5.934;2023-04-03T03:36:09;5.90;78.20
38480;DHT22;62333;51.980;5.934;2023-04-03T03:38:36;5.80;78.30
38480;DHT22;62333;51.980;5.934;2023-04-03T03:41:02;5.80;78.40
38480;DHT22;62333;51.980;5.934;2023-04-03T03:43:28;5.80;78.60
38480;DHT22;62333;51.980;5.934;2023-04-03T03:45:54;5.80;78.70
38480;DHT22;62333;51.980;5.934;2023-04-03T03:48:20;5.80;78.90
38480;DHT22;62333;51.980;5.934;2023-04-03T03:50:47;5.80;78.90
38480;DHT22;62333;51.980;5.934;2023-04-03T03:53:12;5.70;79.00
38480;DHT22;62333;51.980;5.934;2023-04-03T03:55:38;5.70;79.10
38480;DHT22;62333;51.980;5.934;2023-04-03T03:58:04;5.70;79.20
38480;DHT22;62333;51.980;5.934;2023-04-03T04:00:30;5.70;79.30
38480;DHT22;62333;51.980;5.934;2023-04-03T04:02:56;5.70;79.30
38480;DHT22;62333;51.980;5.934;2023-04-03T04:05:22;5.70;79.20
38480;DHT22;62333;51.980;5.934;2023-04-03T04:07:48;5.60;79.20
38480;DHT22;62333;51.980;5.934;2023-04-03T04:10:14;5.70;79.30
38480;DHT22;62333;51.980;5.934;2023-04-03T04:12:39;5.70;79.30
38480;DHT22;62333;51.980;5.934;2023-04-03T04:15:06;5.60;79.30
38480;DHT22;62333;51.980;5.934;2023-04-03T04:17:31;5.60;79.30
38480;DHT22;62333;51.980;5.934;2023-04-03T04:19:57;5.60;79.40
38480;DHT22;62333;51.980;5.934;2023-04-03T04:22:23;5.60;79.50
38480;DHT22;62333;51.980;5.934;2023-04-03T04:24:48;5.60;79.50
38480;DHT22;62333;51.980;5.934;2023-04-03T04:27:14;5.60;79.60
38480;DHT22;62333;51.980;5.934;2023-04-03T04:29:41;5.50;79.60
38480;DHT22;62333;51.980;5.934;2023-04-03T04:32:06;5.50;79.70
38480;DHT22;62333;51.980;5.934;2023-04-03T04:34:34;5.50;80.00
38480;DHT22;62333;51.980;5.934;2023-04-03T04:36:59;5.50;80.00
38480;DHT22;62333;51.980;5.934;2023-04-03T04:39:25;5.40;80.20
38480;DHT22;62333;51.980;5.934;2023-04-03T04:41:51;5.40;80.20
38480;DHT22;62333;51.980;5.934;2023-04-03T04:44:16;5.40;80.30
38480;DHT22;62333;51.980;5.934;2023-04-03T04:46:42;5.30;80.20
38480;DHT22;62333;51.980;5.934;2023-04-03T04:49:08;5.30;80.20
38480;DHT22;62333;51.980;5.934;2023-04-03T04:51:33;5.30;80.30
38480;DHT22;62333;51.980;5.934;2023-04-03T04:53:59;5.20;80.40
38480;DHT22;62333;51.980;5.934;2023-04-03T04:56:25;5.20;80.50
38480;DHT22;62333;51.980;5.934;2023-04-03T04:58:51;5.20;80.50
38480;DHT22;62333;51.980;5.934;2023-04-03T05:01:17;5.10;80.60
38480;DHT22;62333;51.980;5.934;2023-04-03T05:03:43;5.10;80.60
38480;DHT22;62333;51.980;5.934;2023-04-03T05:06:09;5.10;80.60
38480;DHT22;62333;51.980;5.934;2023-04-03T05:08:35;5.10;80.70
38480;DHT22;62333;51.980;5.934;2023-04-03T05:11:01;5.10;80.80
38480;DHT22;62333;51.980;5.934;2023-04-03T05:13:27;5.10;80.80
38480;DHT22;62333;51.980;5.934;2023-04-03T05:15:52;5.00;80.80
38480;DHT22;62333;51.980;5.934;2023-04-03T05:18:18;5.00;80.80
38480;DHT22;62333;51.980;5.934;2023-04-03T05:20:44;5.00;80.80
38480;DHT22;62333;51.980;5.934;2023-04-03T05:23:10;5.00;80.90
38480;DHT22;62333;51.980;5.934;2023-04-03T05:25:39;4.90;80.80
38480;DHT22;62333;51.980;5.934;2023-04-03T05:28:06;4.90;80.90
38480;DHT22;62333;51.980;5.934;2023-04-03T05:30:31;4.90;80.90
38480;DHT22;62333;51.980;5.934;2023-04-03T05:32:58;4.90;80.90
38480;DHT22;62333;51.980;5.934;2023-04-03T05:35:24;4.90;81.00
38480;DHT22;62333;51.980;5.934;2023-04-03T05:37:50;5.00;81.00
38480;DHT22;62333;51.980;5.934;2023-04-03T05:40:16;5.10;81.00
38480;DHT22;62333;51.980;5.934;2023-04-03T05:42:42;5.10;81.00
38480;DHT22;62333;51.980;5.934;2023-04-03T05:45:08;5.20;80.80
38480;DHT22;62333;51.980;5.934;2023-04-03T05:47:33;5.30;80.80
38480;DHT22;62333;51.980;5.934;2023-04-03T05:49:59;5.40;80.60
38480;DHT22;62333;51.980;5.934;2023-04-03T05:52:29;5.50;80.30
38480;DHT22;62333;51.980;5.934;2023-04-03T05:54:55;5.60;80.20
38480;DHT22;62333;51.980;5.934;2023-04-03T05:57:21;5.70;80.00
38480;DHT22;62333;51.980;5.934;2023-04-03T05:59:47;5.70;79.80
38480;DHT22;62333;51.980;5.934;2023-04-03T06:02:16;5.90;79.50
38480;DHT22;62333;51.980;5.934;2023-04-03T06:04:43;5.90;79.30
38480;DHT22;62333;51.980;5.934;2023-04-03T06:07:13;6.00;79.10
38480;DHT22;62333;51.980;5.934;2023-04-03T06:09:39;6.10;78.90
38480;DHT22;62333;51.980;5.934;2023-04-03T06:12:05;6.20;78.70
38480;DHT22;62333;51.980;5.934;2023-04-03T06:14:31;6.30;78.40
38480;DHT22;62333;51.980;5.934;2023-04-03T06:16:56;6.40;78.10
38480;DHT22;62333;51.980;5.934;2023-04-03T06:19:23;6.40;77.60
38480;DHT22;62333;51.980;5.934;2023-04-03T06:21:48;6.50;77.50
38480;DHT22;62333;51.980;5.934;2023-04-03T06:24:15;6.60;77.40
38480;DHT22;62333;51.980;5.934;2023-04-03T06:26:42;6.70;77.20
38480;DHT22;62333;51.980;5.934;2023-04-03T06:29:08;6.80;76.80
38480;DHT22;62333;51.980;5.934;2023-04-03T06:31:33;6.90;76.50
38480;DHT22;62333;51.980;5.934;2023-04-03T06:33:59;7.00;76.30
38480;DHT22;62333;51.980;5.934;2023-04-03T06:36:25;7.10;75.80
38480;DHT22;62333;51.980;5.934;2023-04-03T06:38:51;7.20;75.40
38480;DHT22;62333;51.980;5.934;2023-04-03T06:41:17;7.30;74.80
38480;DHT22;62333;51.980;5.934;2023-04-03T06:43:46;7.40;74.40
38480;DHT22;62333;51.980;5.934;2023-04-03T06:46:20;7.40;73.90
38480;DHT22;62333;51.980;5.934;2023-04-03T06:48:46;7.50;73.70
38480;DHT22;62333;51.980;5.934;2023-04-03T06:51:17;7.60;73.40
38480;DHT22;62333;51.980;5.934;2023-04-03T06:53:44;7.70;72.90
38480;DHT22;62333;51.980;5.934;2023-04-03T06:56:11;7.70;72.50
38480;DHT22;62333;51.980;5.934;2023-04-03T06:58:36;7.80;72.10
38480;DHT22;62333;51.980;5.934;2023-04-03T07:01:02;7.90;71.80
38480;DHT22;62333;51.980;5.934;2023-04-03T07:03:28;8.00;71.50
38480;DHT22;62333;51.980;5.934;2023-04-03T07:05:54;8.10;71.40
38480;DHT22;62333;51.980;5.934;2023-04-03T07:08:19;8.10;70.90
38480;DHT22;62333;51.980;5.934;2023-04-03T07:10:45;8.20;70.50
38480;DHT22;62333;51.980;5.934;2023-04-03T07:13:11;8.20;70.30
38480;DHT22;62333;51.980;5.934;2023-04-03T07:15:37;8.30;70.20
38480;DHT22;62333;51.980;5.934;2023-04-03T07:18:02;8.40;69.50
38480;DHT22;62333;51.980;5.934;2023-04-03T07:20:29;8.40;69.50
38480;DHT22;62333;51.980;5.934;2023-04-03T07:22:55;8.50;69.20
38480;DHT22;62333;51.980;5.934;2023-04-03T07:25:21;8.60;68.70
38480;DHT22;62333;51.980;5.934;2023-04-03T07:27:47;8.70;68.40
38480;DHT22;62333;51.980;5.934;2023-04-03T07:30:13;8.80;67.80
38480;DHT22;62333;51.980;5.934;2023-04-03T07:32:39;8.80;67.30
38480;DHT22;62333;51.980;5.934;2023-04-03T07:35:06;8.80;67.20
38480;DHT22;62333;51.980;5.934;2023-04-03T07:37:31;8.90;66.60
38480;DHT22;62333;51.980;5.934;2023-04-03T07:39:58;8.90;65.90
38480;DHT22;62333;51.980;5.934;2023-04-03T07:42:25;9.00;65.60
38480;DHT22;62333;51.980;5.934;2023-04-03T07:44:53;9.10;66.10
38480;DHT22;62333;51.980;5.934;2023-04-03T07:47:19;9.20;65.40
38480;DHT22;62333;51.980;5.934;2023-04-03T07:49:45;9.30;64.70
38480;DHT22;62333;51.980;5.934;2023-04-03T07:52:11;9.30;64.20
38480;DHT22;62333;51.980;5.934;2023-04-03T07:54:37;9.50;64.10
38480;DHT22;62333;51.980;5.934;2023-04-03T07:57:03;9.60;63.60
38480;DHT22;62333;51.980;5.934;2023-04-03T07:59:29;9.60;63.00
38480;DHT22;62333;51.980;5.934;2023-04-03T08:01:55;9.70;62.00
38480;DHT22;62333;51.980;5.934;2023-04-03T08:04:21;9.80;62.10
38480;DHT22;62333;51.980;5.934;2023-04-03T08:06:47;9.80;61.20
38480;DHT22;62333;51.980;5.934;2023-04-03T08:09:14;9.90;60.60
38480;DHT22;62333;51.980;5.934;2023-04-03T08:11:40;10.00;59.80
38480;DHT22;62333;51.980;5.934;2023-04-03T08:14:06;10.00;59.90
38480;DHT22;62333;51.980;5.934;2023-04-03T08:16:32;10.10;59.90
38480;DHT22;62333;51.980;5.934;2023-04-03T08:18:58;10.20;59.70
38480;DHT22;62333;51.980;5.934;2023-04-03T08:21:24;10.30;59.20
38480;DHT22;62333;51.980;5.934;2023-04-03T08:23:50;10.40;57.90
38480;DHT22;62333;51.980;5.934;2023-04-03T08:26:19;10.60;57.50
38480;DHT22;62333;51.980;5.934;2023-04-03T08:28:45;10.70;56.80
38480;DHT22;62333;51.980;5.934;2023-04-03T08:31:14;10.80;56.70
38480;DHT22;62333;51.980;5.934;2023-04-03T08:33:40;10.80;56.20
38480;DHT22;62333;51.980;5.934;2023-04-03T08:36:15;11.00;56.00
38480;DHT22;62333;51.980;5.934;2023-04-03T08:38:41;11.10;55.00
38480;DHT22;62333;51.980;5.934;2023-04-03T08:49:26;11.20;52.80
38480;DHT22;62333;51.980;5.934;2023-04-03T08:51:54;11.40;52.10
38480;DHT22;62333;51.980;5.934;2023-04-03T08:54:51;11.40;50.80
38480;DHT22;62333;51.980;5.934;2023-04-03T08:57:34;11.60;49.30
38480;DHT22;62333;51.980;5.934;2023-04-03T09:00:05;11.60;48.70
38480;DHT22;62333;51.980;5.934;2023-04-03T09:02:46;11.60;48.10
38480;DHT22;62333;51.980;5.934;2023-04-03T09:05:18;11.70;48.00
38480;DHT22;62333;51.980;5.934;2023-04-03T09:10:41;12.10;47.30
38480;DHT22;62333;51.980;5.934;2023-04-03T09:13:26;12.10;46.30
38480;DHT22;62333;51.980;5.934;2023-04-03T09:15:55;12.30;45.70
38480;DHT22;62333;51.980;5.934;2023-04-03T09:18:28;12.40;44.60
38480;DHT22;62333;51.980;5.934;2023-04-03T09:21:17;12.50;43.30
38480;DHT22;62333;51.980;5.934;2023-04-03T09:24:00;12.60;42.50
38480;DHT22;62333;51.980;5.934;2023-04-03T09:26:33;12.70;42.90
38480;DHT22;62333;51.980;5.934;2023-04-03T09:29:05;12.80;41.30
38480;DHT22;62333;51.980;5.934;2023-04-03T09:31:39;12.80;39.20
38480;DHT22;62333;51.980;5.934;2023-04-03T09:34:17;12.80;39.00
38480;DHT22;62333;51.980;5.934;2023-04-03T09:36:54;12.70;38.80
38480;DHT22;62333;51.980;5.934;2023-04-03T09:39:26;12.70;37.20
38480;DHT22;62333;51.980;5.934;2023-04-03T09:44:28;12.50;37.00
38480;DHT22;62333;51.980;5.934;2023-04-03T09:46:54;12.50;37.60
38480;DHT22;62333;51.980;5.934;2023-04-03T09:49:20;12.60;38.00
38480;DHT22;62333;51.980;5.934;2023-04-03T09:51:46;12.60;37.70
38480;DHT22;62333;51.980;5.934;2023-04-03T09:54:32;12.70;36.90
38480;DHT22;62333;51.980;5.934;2023-04-03T09:57:04;12.70;36.10
38480;DHT22;62333;51.980;5.934;2023-04-03T09:59:31;12.70;36.90
38480;DHT22;62333;51.980;5.934;2023-04-03T10:02:16;12.80;37.30
38480;DHT22;62333;51.980;5.934;2023-04-03T10:04:45;13.00;37.70
38480;DHT22;62333;51.980;5.934;2023-04-03T10:10:01;13.10;36.10
38480;DHT22;62333;51.980;5.934;2023-04-03T10:12:27;13.20;37.00
38480;DHT22;62333;51.980;5.934;2023-04-03T10:22:40;13.30;36.00
38480;DHT22;62333;51.980;5.934;2023-04-03T10:33:32;13.60;36.30
38480;DHT22;62333;51.980;5.934;2023-04-03T10:36:21;13.70;35.40
38480;DHT22;62333;51.980;5.934;2023-04-03T10:44:44;13.60;35.30
38480;DHT22;62333;51.980;5.934;2023-04-03T10:47:41;13.70;35.80
38480;DHT22;62333;51.980;5.934;2023-04-03T10:52:42;14.00;35.60
38480;DHT22;62333;51.980;5.934;2023-04-03T10:57:40;14.20;36.30
38480;DHT22;62333;51.980;5.934;2023-04-03T11:00:14;14.20;35.10
38480;DHT22;62333;51.980;5.934;2023-04-03T11:05:25;14.10;35.80
38480;DHT22;62333;51.980;5.934;2023-04-03T11:07:53;14.10;35.40
38480;DHT22;62333;51.980;5.934;2023-04-03T11:10:45;14.20;34.40
38480;DHT22;62333;51.980;5.934;2023-04-03T11:15:42;14.10;35.30
38480;DHT22;62333;51.980;5.934;2023-04-03T11:18:17;14.20;34.90
38480;DHT22;62333;51.980;5.934;2023-04-03T11:20:57;14.40;34.60
38480;DHT22;62333;51.980;5.934;2023-04-03T11:23:40;14.40;34.10
38480;DHT22;62333;51.980;5.934;2023-04-03T11:26:17;14.40;33.90
38480;DHT22;62333;51.980;5.934;2023-04-03T11:28:43;14.30;33.30
38480;DHT22;62333;51.980;5.934;2023-04-03T11:36:28;14.00;33.40
38480;DHT22;62333;51.980;5.934;2023-04-03T11:38:58;14.10;33.50
38480;DHT22;62333;51.980;5.934;2023-04-03T11:41:29;14.10;33.90
38480;DHT22;62333;51.980;5.934;2023-04-03T11:44:06;14.20;34.00
38480;DHT22;62333;51.980;5.934;2023-04-03T11:46:54;14.40;34.00
38480;DHT22;62333;51.980;5.934;2023-04-03T11:49:52;14.50;34.40
38480;DHT22;62333;51.980;5.934;2023-04-03T12:27:01;15.30;33.70
38480;DHT22;62333;51.980;5.934;2023-04-03T12:45:50;15.80;33.40
38480;DHT22;62333;51.980;5.934;2023-04-03T12:48:21;16.00;33.50
38480;DHT22;62333;51.980;5.934;2023-04-03T12:50:49;16.20;33.80
38480;DHT22;62333;51.980;5.934;2023-04-03T12:53:19;16.40;33.10
38480;DHT22;62333;51.980;5.934;2023-04-03T12:55:49;16.60;33.40
38480;DHT22;62333;51.980;5.934;2023-04-03T12:58:26;16.80;32.80
38480;DHT22;62333;51.980;5.934;2023-04-03T13:01:04;16.80;32.50
38480;DHT22;62333;51.980;5.934;2023-04-03T13:03:43;16.90;32.60
38480;DHT22;62333;51.980;5.934;2023-04-03T13:06:37;17.00;32.40
38480;DHT22;62333;51.980;5.934;2023-04-03T13:09:04;17.10;32.10
38480;DHT22;62333;51.980;5.934;2023-04-03T13:11:36;17.30;31.90
38480;DHT22;62333;51.980;5.934;2023-04-03T13:14:13;17.20;31.20
38480;DHT22;62333;51.980;5.934;2023-04-03T13:16:40;17.10;31.50
38480;DHT22;62333;51.980;5.934;2023-04-03T13:19:15;17.30;31.90
38480;DHT22;62333;51.980;5.934;2023-04-03T13:21:41;17.70;31.40
38480;DHT22;62333;51.980;5.934;2023-04-03T13:24:09;18.00;31.20
38480;DHT22;62333;51.980;5.934;2023-04-03T13:26:35;18.50;31.10
38480;DHT22;62333;51.980;5.934;2023-04-03T13:29:05;18.80;30.70
38480;DHT22;62333;51.980;5.934;2023-04-03T13:31:36;19.20;30.30
38480;DHT22;62333;51.980;5.934;2023-04-03T13:34:11;19.70;30.60
38480;DHT22;62333;51.980;5.934;2023-04-03T13:36:40;20.20;30.00
38480;DHT22;62333;51.980;5.934;2023-04-03T13:39:22;20.50;29.50
38480;DHT22;62333;51.980;5.934;2023-04-03T13:41:54;20.80;29.10
38480;DHT22;62333;51.980;5.934;2023-04-03T13:44:28;21.10;28.90
38480;DHT22;62333;51.980;5.934;2023-04-03T13:46:55;21.40;29.00
38480;DHT22;62333;51.980;5.934;2023-04-03T13:49:29;21.70;29.00
38480;DHT22;62333;51.980;5.934;2023-04-03T13:51:56;22.10;28.50
38480;DHT22;62333;51.980;5.934;2023-04-03T13:54:25;22.40;28.40
38480;DHT22;62333;51.980;5.934;2023-04-03T13:56:55;22.40;28.00
38480;DHT22;62333;51.980;5.934;2023-04-03T13:59:27;22.20;27.90
38480;DHT22;62333;51.980;5.934;2023-04-03T14:04:31;22.00;28.00
38480;DHT22;62333;51.980;5.934;2023-04-03T14:06:57;22.00;28.30
38480;DHT22;62333;51.980;5.934;2023-04-03T14:09:25;21.90;28.10
38480;DHT22;62333;51.980;5.934;2023-04-03T14:11:58;21.80;28.60
38480;DHT22;62333;51.980;5.934;2023-04-03T14:14:34;21.80;28.50
38480;DHT22;62333;51.980;5.934;2023-04-03T14:17:03;21.70;28.40
38480;DHT22;62333;51.980;5.934;2023-04-03T14:19:32;21.60;28.10
38480;DHT22;62333;51.980;5.934;2023-04-03T14:21:59;21.50;28.10
38480;DHT22;62333;51.980;5.934;2023-04-03T14:24:26;21.20;28.30
38480;DHT22;62333;51.980;5.934;2023-04-03T14:26:54;21.00;28.60
38480;DHT22;62333;51.980;5.934;2023-04-03T14:29:20;20.70;28.70
38480;DHT22;62333;51.980;5.934;2023-04-03T14:31:48;20.20;28.80
38480;DHT22;62333;51.980;5.934;2023-04-03T14:34:14;19.70;29.10
38480;DHT22;62333;51.980;5.934;2023-04-03T14:36:43;19.10;29.20
38480;DHT22;62333;51.980;5.934;2023-04-03T14:39:15;18.40;29.70
38480;DHT22;62333;51.980;5.934;2023-04-03T14:41:42;17.80;30.30
38480;DHT22;62333;51.980;5.934;2023-04-03T14:44:08;17.20;31.00
38480;DHT22;62333;51.980;5.934;2023-04-03T14:46:39;16.70;31.50
38480;DHT22;62333;51.980;5.934;2023-04-03T14:49:16;16.20;32.20
38480;DHT22;62333;51.980;5.934;2023-04-03T14:51:43;15.80;33.00
38480;DHT22;62333;51.980;5.934;2023-04-03T14:54:21;15.40;33.80
38480;DHT22;62333;51.980;5.934;2023-04-03T14:56:51;15.10;34.40
38480;DHT22;62333;51.980;5.934;2023-04-03T14:59:17;14.70;34.80
38480;DHT22;62333;51.980;5.934;2023-04-03T15:01:45;14.40;35.30
38480;DHT22;62333;51.980;5.934;2023-04-03T15:04:16;14.10;35.60
38480;DHT22;62333;51.980;5.934;2023-04-03T15:06:42;13.90;35.90
38480;DHT22;62333;51.980;5.934;2023-04-03T15:09:21;13.70;36.30
38480;DHT22;62333;51.980;5.934;2023-04-03T15:11:48;13.30;37.00
38480;DHT22;62333;51.980;5.934;2023-04-03T15:14:14;13.10;37.50
38480;DHT22;62333;51.980;5.934;2023-04-03T15:16:40;13.10;37.90
38480;DHT22;62333;51.980;5.934;2023-04-03T15:19:05;13.00;38.20
38480;DHT22;62333;51.980;5.934;2023-04-03T15:21:31;12.90;38.20
38480;DHT22;62333;51.980;5.934;2023-04-03T15:23:57;12.80;38.10
38480;DHT22;62333;51.980;5.934;2023-04-03T15:26:23;12.70;38.20
38480;DHT22;62333;51.980;5.934;2023-04-03T15:28:49;12.60;38.40
38480;DHT22;62333;51.980;5.934;2023-04-03T15:31:14;12.50;38.40
38480;DHT22;62333;51.980;5.934;2023-04-03T15:33:40;12.40;38.60
38480;DHT22;62333;51.980;5.934;2023-04-03T15:36:06;12.40;39.00
38480;DHT22;62333;51.980;5.934;2023-04-03T15:38:32;12.30;39.10
38480;DHT22;62333;51.980;5.934;2023-04-03T15:40:58;12.30;39.30
38480;DHT22;62333;51.980;5.934;2023-04-03T15:43:23;12.20;39.40
38480;DHT22;62333;51.980;5.934;2023-04-03T15:45:50;12.20;39.80
38480;DHT22;62333;51.980;5.934;2023-04-03T15:48:16;12.20;40.00
38480;DHT22;62333;51.980;5.934;2023-04-03T15:50:42;12.20;40.10
38480;DHT22;62333;51.980;5.934;2023-04-03T15:53:08;12.10;40.10
38480;DHT22;62333;51.980;5.934;2023-04-03T15:55:36;12.10;40.20
38480;DHT22;62333;51.980;5.934;2023-04-03T15:58:02;12.10;40.20
38480;DHT22;62333;51.980;5.934;2023-04-03T16:00:28;12.00;40.00
38480;DHT22;62333;51.980;5.934;2023-04-03T16:02:58;12.00;40.30
38480;DHT22;62333;51.980;5.934;2023-04-03T16:05:24;11.90;40.40
38480;DHT22;62333;51.980;5.934;2023-04-03T16:07:50;11.90;40.50
38480;DHT22;62333;51.980;5.934;2023-04-03T16:10:17;11.80;40.50
38480;DHT22;62333;51.980;5.934;2023-04-03T16:12:43;11.80;40.70
38480;DHT22;62333;51.980;5.934;2023-04-03T16:15:10;11.70;40.90
38480;DHT22;62333;51.980;5.934;2023-04-03T16:17:37;11.70;41.10
38480;DHT22;62333;51.980;5.934;2023-04-03T16:20:04;11.70;41.20
38480;DHT22;62333;51.980;5.934;2023-04-03T16:22:31;11.60;41.30
38480;DHT22;62333;51.980;5.934;2023-04-03T16:24:57;11.60;41.40
38480;DHT22;62333;51.980;5.934;2023-04-03T16:27:22;11.60;41.60
38480;DHT22;62333;51.980;5.934;2023-04-03T16:29:55;11.50;41.70
38480;DHT22;62333;51.980;5.934;2023-04-03T16:32:22;11.40;41.80
38480;DHT22;62333;51.980;5.934;2023-04-03T16:34:48;11.30;42.00
38480;DHT22;62333;51.980;5.934;2023-04-03T16:37:15;11.30;42.10
38480;DHT22;62333;51.980;5.934;2023-04-03T16:39:41;11.30;42.30
38480;DHT22;62333;51.980;5.934;2023-04-03T16:42:07;11.30;42.20
38480;DHT22;62333;51.980;5.934;2023-04-03T16:44:34;11.30;42.20
38480;DHT22;62333;51.980;5.934;2023-04-03T16:47:00;11.30;42.30
38480;DHT22;62333;51.980;5.934;2023-04-03T16:49:26;11.20;42.40
38480;DHT22;62333;51.980;5.934;2023-04-03T16:51:57;11.20;42.70
38480;DHT22;62333;51.980;5.934;2023-04-03T16:54:23;11.20;42.60
38480;DHT22;62333;51.980;5.934;2023-04-03T16:56:49;11.10;42.50
38480;DHT22;62333;51.980;5.934;2023-04-03T16:59:14;11.10;42.50
38480;DHT22;62333;51.980;5.934;2023-04-03T17:01:40;11.00;42.60
38480;DHT22;62333;51.980;5.934;2023-04-03T17:04:06;11.10;42.70
38480;DHT22;62333;51.980;5.934;2023-04-03T17:06:32;11.00;42.80
38480;DHT22;62333;51.980;5.934;2023-04-03T17:08:57;11.00;42.90
38480;DHT22;62333;51.980;5.934;2023-04-03T17:11:23;11.00;42.90
38480;DHT22;62333;51.980;5.934;2023-04-03T17:13:49;11.00;43.00
38480;DHT22;62333;51.980;5.934;2023-04-03T17:16:15;11.00;43.10
38480;DHT22;62333;51.980;5.934;2023-04-03T17:18:42;11.00;43.30
38480;DHT22;62333;51.980;5.934;2023-04-03T17:21:08;11.00;43.30
38480;DHT22;62333;51.980;5.934;2023-04-03T17:23:34;11.00;43.50
38480;DHT22;62333;51.980;5.934;2023-04-03T17:26:02;10.90;43.50
38480;DHT22;62333;51.980;5.934;2023-04-03T17:28:28;10.80;43.70
38480;DHT22;62333;51.980;5.934;2023-04-03T17:30:55;10.80;43.60
38480;DHT22;62333;51.980;5.934;2023-04-03T17:33:21;10.70;43.60
38480;DHT22;62333;51.980;5.934;2023-04-03T17:35:46;10.70;43.80
38480;DHT22;62333;51.980;5.934;2023-04-03T17:38:12;10.70;43.80